Aviston, IL (62216)

6:55 AM CST on February 13, 2016 (GMT -0600)
Brian's backyard | | Change Station
CLOSE
Current Station
Personal Weather Station
Location: Trenton, IL
Elevation: 482 ft
Nearby Weather Stations
Active Advisory: Flood Warning

Elev 482 ft 38.61 °N, 89.65 °W | Updated 19 seconds ago

Clear
Clear
9.9 °F
Feels Like -4 °F
N
10.5
Wind Variable Wind from West
Gusts 10.5 mph

Today
High -- | Low -- °F
--% Chance of Precip.
Yesterday
High -- | Low -- °F
Precip. -- in
Pressure 30.66 in
Visibility 10.0 miles
Clouds Clear
Windchill -4 °F
Dew Point 4 °F
Humidity 77%
Rainfall 0.00 in
Snow Depth Not available.
6:52 AM 5:33 PM
Waxing Crescent, 30% visible
METAR KBLV 131158Z AUTO 01007KT 10SM CLR M11/M17 A3062 RMK AO2 SLP380 T11141171 11076 21114 52012
Pressure 30.66 in
Visibility 10.0 miles
Clouds Clear
Windchill -4 °F
Dew Point 4 °F
Humidity 77%
Rainfall 0.00 in
Snow Depth Not available.
6:52 AM 5:33 PM
Waxing Crescent, 30% visible
METAR KBLV 131158Z AUTO 01007KT 10SM CLR M11/M17 A3062 RMK AO2 SLP380 T11141171 11076 21114 52012

10-Day Weather Forecast

Almanac

Astronomy

Feb. 13, 2016 Rise Set
Actual Time
Civil Twilight
Nautical Twilight
Astronomical Twilight
Moon
Length of Visible Light
Length of Day
Tomorrow will be .
, % of the Moon is Illuminated

Today's Extremes

State Highs State Lows

Community

WunderPhotos

Upload Photos

1,892,543 photos uploaded!

WunderBlog® & News

Nearby

Air Quality

  Air Quality AQ Index Pollutant
Not available.

Snow Depth

Station Depth Elevation

Earthquake Activity

City Distance Mag. Time & Date
Minimum magnitude displayed is 2.5.

Coastal Water Temperatures

Place Temperature

Stations

Nearby Weather Stations

Station Location Temp. Windchill Dew Point Humidity Wind Precip. Elev Updated Type
                   

Watches & Warnings

Flood Warning
Issued: 9:07 AM CST Feb. 12, 2016 – National Weather Service

The Flood Warning continues for
the Kaskaskia River at Carlyle tw
* until further notice.
* At 8:30 am Friday the stage was 426.0 feet.
* Flood stage is 423.5 feet.
* Minor flooding is occurring and minor flooding is forecast.
* The river is forecast to remain near 425.9 feet.
* Impact: at 424.5 feet... some Cabins just below the dam are
inundated.
* Impact: at 423.5 feet... flood stage. Rural damage begins.
Township roads in Covington become inundated.
* Impact: at 421.0 feet... left bank in vicinity of the gage overflows
with minor flooding of park lands.


                   Fld latest 7 a.M. Forecast
location stg obs stg 02/13 02/14 02/15 02/16 02/17

Kaskaskia River
Carlyle tw 423.5 425.97 425.9 425.9 425.9 425.9 425.9




Lat... Lon 3862 8936 3861 8933 3851 8937 3849 8942
      3854 8942